Time;durP1;ratioP1;P1;durP2;ratioP2;P2;SDS_P1;SDS_P2;PMS_P1;PMS_P2;Temp;Humidity;BMP_temperature;BMP_pressure;BME280_temperature;BME280_humidity;BME280_pressure;Samples;Min_cycle;Max_cycle;Signal;HPM_P1;HPM_P2
2024/04/05 00:25:16;;;;;;;2.13;1.70;;;11.40;99.90;;;;;;5896552;24;20436;-87
2024/04/05 01:14:31;;;;;;;;;;;;;;;;;;;;;
2024/04/05 01:20:29;;;;;;;4.33;2.00;;;11.20;1.00;;;;;;5868273;24;20493;-88
2024/04/05 01:20:41;;;;;;;2.43;2.00;;;11.20;1.00;;;;;;6003298;23;20455;-86
2024/04/05 01:23:19;;;;;;;3.10;2.20;;;11.10;1.00;;;;;;6115101;23;20350;-87
2024/04/05 01:57:58;;;;;;;4.20;2.20;;;11.20;1.00;;;;;;6159630;22;20426;-83
2024/04/05 02:00:24;;;;;;;3.63;1.93;;;11.30;1.00;;;;;;6282292;22;20922;-83
2024/04/05 02:02:51;;;;;;;3.13;1.63;;;11.30;1.00;;;;;;6283670;22;20422;-85
2024/04/05 02:05:18;;;;;;;8.73;2.10;;;11.30;1.00;;;;;;6285434;22;20377;-84
2024/04/05 02:07:47;;;;;;;7.67;2.10;;;11.30;1.00;;;;;;6284073;22;20480;-85
2024/04/05 02:10:12;;;;;;;2.53;1.90;;;11.30;1.00;;;;;;6283321;22;20378;-85
2024/04/05 02:12:39;;;;;;;2.50;1.80;;;11.30;1.00;;;;;;6284168;22;20370;-84
2024/04/05 02:15:06;;;;;;;3.00;1.80;;;11.30;1.00;;;;;;6284251;22;20914;-85
2024/04/05 02:17:33;;;;;;;5.90;1.60;;;11.30;1.00;;;;;;6284622;22;20420;-85
2024/04/05 02:19:58;;;;;;;6.33;2.07;;;11.30;1.00;;;;;;6299931;22;20436;-84
2024/04/05 02:22:25;;;;;;;5.83;2.27;;;11.30;1.00;;;;;;6301955;22;20372;-84
2024/04/05 02:24:53;;;;;;;4.10;2.10;;;11.30;1.00;;;;;;6296846;22;20166;-85
2024/04/05 02:27:19;;;;;;;2.90;1.50;;;11.30;1.00;;;;;;6284329;22;20736;-85
2024/04/05 02:29:45;;;;;;;4.33;1.90;;;11.30;1.00;;;;;;6285086;22;20410;-85
2024/04/05 02:32:12;;;;;;;5.07;1.53;;;11.30;1.00;;;;;;6288988;22;20386;-85
2024/04/05 02:34:38;;;;;;;4.10;1.93;;;11.30;1.00;;;;;;6299103;22;20173;-84
2024/04/05 02:37:05;;;;;;;1.97;1.63;;;11.30;1.00;;;;;;6306283;22;20504;-85
2024/04/05 02:39:30;;;;;;;2.90;1.50;;;11.30;1.00;;;;;;6303493;22;20173;-83
2024/04/05 02:41:59;;;;;;;3.13;1.67;;;11.30;1.00;;;;;;6282215;22;20898;-84
2024/04/05 02:44:25;;;;;;;2.80;1.47;;;11.30;1.00;;;;;;6283106;22;20216;-84
2024/04/05 02:46:53;;;;;;;6.70;2.13;;;11.30;1.00;;;;;;6284192;22;20432;-84
2024/04/05 02:49:19;;;;;;;6.13;2.20;;;11.30;1.00;;;;;;6288565;22;20378;-84
2024/04/05 02:51:46;;;;;;;4.30;1.50;;;11.20;1.00;;;;;;6299371;22;20392;-84
2024/04/05 02:54:12;;;;;;;3.10;2.07;;;11.20;1.00;;;;;;6303802;22;20383;-83
2024/04/05 02:56:39;;;;;;;5.40;2.43;;;11.20;1.00;;;;;;6303330;22;20382;-83
2024/04/05 02:59:06;;;;;;;3.00;1.97;;;11.20;1.00;;;;;;6302620;22;20381;-83
2024/04/05 03:01:33;;;;;;;4.70;1.80;;;11.20;1.00;;;;;;6301753;22;20460;-83
2024/04/05 03:03:59;;;;;;;4.50;3.40;;;11.10;1.00;;;;;;6301562;22;20379;-83
2024/04/05 03:06:26;;;;;;;5.83;2.10;;;11.10;1.00;;;;;;6302007;22;20384;-83
2024/04/05 03:08:52;;;;;;;3.83;1.60;;;11.10;1.00;;;;;;6297568;22;20412;-84
2024/04/05 03:11:20;;;;;;;5.40;2.00;;;11.10;1.00;;;;;;6284765;22;20427;-84
2024/04/05 03:13:46;;;;;;;4.90;2.00;;;11.10;1.00;;;;;;6285234;22;20675;-84
2024/04/05 03:16:14;;;;;;;3.53;2.13;;;11.10;14.80;;;;;;6284232;22;20408;-84
2024/04/05 03:18:41;;;;;;;4.03;1.90;;;11.00;53.20;;;;;;6296513;22;20402;-84
2024/04/05 03:21:08;;;;;;;4.53;2.10;;;11.00;97.40;;;;;;6290867;22;20407;-84
2024/04/05 03:23:34;;;;;;;5.90;2.30;;;11.00;99.90;;;;;;6285640;22;20404;-84
2024/04/05 03:26:01;;;;;;;2.77;2.33;;;11.00;99.90;;;;;;6285540;22;20375;-84
2024/04/05 03:28:26;;;;;;;3.90;2.30;;;11.00;99.90;;;;;;6285909;22;20414;-84
2024/04/05 03:30:53;;;;;;;3.67;1.70;;;11.00;99.90;;;;;;6287259;22;20400;-84
2024/04/05 03:33:20;;;;;;;5.03;1.77;;;11.00;99.90;;;;;;6286552;22;20413;-85
2024/04/05 03:35:47;;;;;;;4.10;1.90;;;11.00;99.90;;;;;;6286643;22;20404;-84
2024/04/05 03:38:15;;;;;;;5.33;2.47;;;11.10;99.90;;;;;;6285619;22;20730;-85
2024/04/05 03:40:42;;;;;;;3.07;2.20;;;11.00;99.90;;;;;;6286106;22;20440;-84
2024/04/05 03:43:09;;;;;;;4.67;2.03;;;11.00;99.90;;;;;;6288194;22;20412;-84
2024/04/05 03:45:36;;;;;;;5.20;1.83;;;11.00;99.90;;;;;;6286616;22;20401;-84
2024/04/05 03:48:04;;;;;;;2.80;1.80;;;11.00;99.90;;;;;;6283897;22;20403;-85
2024/04/05 03:50:31;;;;;;;7.80;2.67;;;11.00;99.90;;;;;;6284100;22;20447;-85
2024/04/05 03:52:58;;;;;;;3.20;2.10;;;11.00;99.90;;;;;;6283570;22;20430;-85
2024/04/05 03:55:23;;;;;;;4.23;2.00;;;11.00;99.90;;;;;;6283001;22;20495;-85
2024/04/05 03:57:52;;;;;;;5.90;2.47;;;11.00;99.90;;;;;;6283126;22;20803;-85
2024/04/05 04:00:19;;;;;;;6.33;2.17;;;11.00;99.90;;;;;;6284269;22;20959;-84
2024/04/05 04:02:45;;;;;;;5.57;2.10;;;11.00;99.90;;;;;;6284100;22;20401;-85
2024/04/05 04:05:11;;;;;;;4.50;1.80;;;11.10;99.90;;;;;;6283008;22;20401;-85
2024/04/05 04:07:39;;;;;;;5.20;2.47;;;11.10;99.90;;;;;;6282680;22;21033;-84
2024/04/05 04:10:06;;;;;;;5.17;1.80;;;11.10;99.90;;;;;;6285906;22;20173;-85
2024/04/05 04:12:32;;;;;;;4.33;2.10;;;11.10;99.90;;;;;;6285206;22;20413;-84
2024/04/05 04:14:58;;;;;;;5.67;2.20;;;11.10;99.90;;;;;;6285098;22;20406;-84
2024/04/05 04:17:25;;;;;;;8.07;2.30;;;11.10;99.90;;;;;;6288642;22;20424;-85
2024/04/05 04:19:52;;;;;;;3.83;2.20;;;11.10;99.90;;;;;;6299037;22;20173;-83
2024/04/05 04:22:19;;;;;;;7.37;2.13;;;11.10;1.00;;;;;;6299999;22;20442;-83
2024/04/05 04:24:46;;;;;;;4.10;1.80;;;11.10;99.90;;;;;;6289190;22;20379;-85
2024/04/05 04:27:13;;;;;;;7.57;2.90;;;11.10;1.00;;;;;;6284000;22;20910;-85
2024/04/05 04:29:39;;;;;;;4.87;2.73;;;11.10;1.00;;;;;;6283444;22;20400;-86
2024/04/05 04:32:07;;;;;;;4.30;1.93;;;11.10;43.30;;;;;;6283064;22;20367;-86
2024/04/05 04:34:34;;;;;;;2.67;2.20;;;11.00;99.90;;;;;;6283095;22;20483;-86
2024/04/05 04:37:00;;;;;;;5.47;2.40;;;11.00;99.90;;;;;;6283982;22;20398;-84
2024/04/05 04:39:26;;;;;;;4.23;2.70;;;10.90;1.00;;;;;;6282412;22;20402;-84
2024/04/05 04:41:55;;;;;;;5.73;2.93;;;10.90;99.30;;;;;;6282250;22;20951;-85
2024/04/05 04:44:21;;;;;;;10.50;2.77;;;10.90;99.90;;;;;;6282835;22;20431;-84
2024/04/05 04:46:48;;;;;;;3.43;1.70;;;10.90;99.90;;;;;;6288912;22;20420;-84
2024/04/05 04:49:14;;;;;;;5.83;1.77;;;10.90;99.90;;;;;;6285147;22;20435;-84
2024/04/05 04:51:41;;;;;;;2.00;1.80;;;10.90;99.90;;;;;;6283554;22;20396;-85
2024/04/05 04:54:07;;;;;;;3.60;2.10;;;10.90;99.90;;;;;;6284159;22;20404;-85
2024/04/05 04:56:34;;;;;;;8.03;2.17;;;10.90;99.90;;;;;;6284886;22;20404;-84
2024/04/05 04:59:01;;;;;;;5.57;2.43;;;11.00;99.90;;;;;;6286070;22;20375;-84
2024/04/05 05:01:28;;;;;;;5.10;2.87;;;11.00;1.00;;;;;;6285709;22;20435;-83
2024/04/05 05:03:54;;;;;;;3.37;2.00;;;11.00;1.00;;;;;;6291085;22;20424;-83
2024/04/05 05:06:21;;;;;;;5.07;2.37;;;11.00;99.90;;;;;;6305458;22;20391;-84
2024/04/05 05:08:47;;;;;;;5.43;2.30;;;11.00;99.90;;;;;;6306482;22;20408;-84
2024/04/05 05:11:14;;;;;;;7.33;2.63;;;11.00;1.00;;;;;;6306704;22;20440;-84
2024/04/05 05:13:39;;;;;;;3.90;2.77;;;11.00;1.00;;;;;;6300621;22;20379;-84
2024/04/05 05:16:09;;;;;;;5.40;3.03;;;11.00;99.90;;;;;;6287404;22;20407;-84
2024/04/05 05:18:35;;;;;;;8.50;2.47;;;11.00;99.90;;;;;;6288354;22;20194;-84
2024/04/05 05:21:01;;;;;;;5.40;2.13;;;11.00;99.90;;;;;;6286609;22;20443;-84
2024/04/05 05:23:27;;;;;;;7.03;2.07;;;11.10;99.90;;;;;;6286158;22;20375;-84
2024/04/05 05:25:57;;;;;;;7.43;2.80;;;11.10;53.70;;;;;;6285366;22;20432;-84
2024/04/05 05:28:23;;;;;;;5.63;2.67;;;11.10;1.00;;;;;;6295826;22;20911;-84
2024/04/05 05:30:50;;;;;;;6.10;2.30;;;11.20;49.40;;;;;;6300684;22;20396;-84
2024/04/05 05:33:17;;;;;;;3.07;2.77;;;11.20;1.00;;;;;;6301302;22;20389;-84
2024/04/05 05:35:44;;;;;;;2.80;1.90;;;11.20;99.90;;;;;;6290430;22;20404;-85
2024/04/05 05:38:10;;;;;;;6.73;2.50;;;11.30;99.90;;;;;;6286676;22;20406;-85
2024/04/05 05:40:38;;;;;;;3.00;2.13;;;11.30;2.70;;;;;;6288863;22;20406;-85
2024/04/05 05:43:04;;;;;;;4.50;2.17;;;11.40;1.00;;;;;;6286266;22;20419;-84
2024/04/05 05:45:31;;;;;;;9.00;2.33;;;11.50;1.00;;;;;;6284537;22;20375;-85
2024/04/05 05:47:57;;;;;;;3.10;1.97;;;11.60;1.00;;;;;;6288076;22;20428;-85
2024/04/05 05:50:26;;;;;;;8.57;2.63;;;11.60;1.00;;;;;;6286913;22;20449;-85
2024/04/05 05:52:52;;;;;;;3.33;1.93;;;11.60;1.00;;;;;;6285116;22;20904;-85
2024/04/05 05:55:22;;;;;;;9.03;2.70;;;11.70;1.00;;;;;;6284359;22;20404;-85
2024/04/05 05:57:48;;;;;;;6.30;2.80;;;11.70;1.00;;;;;;6284853;22;20787;-85
2024/04/05 06:00:15;;;;;;;11.57;4.10;;;11.80;1.00;;;;;;6284819;22;20397;-85
2024/04/05 06:02:41;;;;;;;4.23;2.20;;;11.80;1.00;;;;;;6285442;22;20395;-85
2024/04/05 06:05:10;;;;;;;9.87;3.00;;;11.80;99.90;;;;;;6287161;22;20397;-85
2024/04/05 06:07:37;;;;;;;5.67;2.83;;;11.80;99.90;;;;;;6284423;22;20447;-85
2024/04/05 06:10:05;;;;;;;5.20;2.63;;;11.80;99.90;;;;;;6284687;22;20375;-85
2024/04/05 06:12:31;;;;;;;4.23;2.20;;;11.80;99.90;;;;;;6288293;22;20404;-85
2024/04/05 06:14:59;;;;;;;7.33;2.90;;;11.90;99.90;;;;;;6284824;22;20404;-85
2024/04/05 06:17:26;;;;;;;4.50;2.77;;;11.90;99.90;;;;;;6283260;22;20447;-84
2024/04/05 06:19:54;;;;;;;6.93;2.67;;;12.00;99.90;;;;;;6284841;22;20430;-85
2024/04/05 06:22:20;;;;;;;5.00;3.40;;;12.10;99.90;;;;;;6285047;22;20460;-85
2024/04/05 06:24:51;;;;;;;10.10;4.73;;;12.10;99.90;;;;;;6286386;22;20443;-85
2024/04/05 06:27:17;;;;;;;9.20;5.20;;;12.10;99.90;;;;;;6284898;22;20399;-84
2024/04/05 06:29:48;;;;;;;10.30;6.33;;;12.20;99.90;;;;;;6283875;22;20914;-83
2024/04/05 06:32:14;;;;;;;12.33;4.47;;;12.20;99.90;;;;;;6283647;22;20419;-85
2024/04/05 06:34:42;;;;;;;7.43;3.50;;;12.30;99.90;;;;;;6284804;22;20401;-84
2024/04/05 06:37:08;;;;;;;8.90;3.33;;;12.40;99.90;;;;;;6284538;22;20470;-86
2024/04/05 06:39:35;;;;;;;7.80;3.13;;;12.50;99.90;;;;;;6285808;22;20400;-83
2024/04/05 06:42:04;;;;;;;5.87;2.60;;;12.70;99.90;;;;;;6284051;22;20462;-84
2024/04/05 06:44:35;;;;;;;6.47;2.70;;;12.70;42.20;;;;;;6284923;22;20404;-84
2024/04/05 06:47:04;;;;;;;6.13;2.53;;;12.90;15.60;;;;;;6287209;22;20416;-85
2024/04/05 06:49:31;;;;;;;9.03;3.40;;;12.90;1.00;;;;;;6286183;22;20404;-85
2024/04/05 06:51:57;;;;;;;4.80;2.10;;;12.80;1.00;;;;;;6287551;22;20396;-85
2024/04/05 06:54:23;;;;;;;6.50;3.50;;;12.80;1.00;;;;;;6288115;22;20403;-86
2024/04/05 06:56:50;;;;;;;4.73;2.40;;;12.90;1.00;;;;;;6290935;22;20420;-85
2024/04/05 06:59:17;;;;;;;7.77;3.30;;;12.90;1.00;;;;;;6284713;22;20356;-86
2024/04/05 07:01:44;;;;;;;4.03;2.73;;;13.00;1.00;;;;;;6287199;22;20439;-86
2024/04/05 07:04:11;;;;;;;7.03;2.40;;;13.00;1.00;;;;;;6306437;22;20391;-87
2024/04/05 07:06:38;;;;;;;9.50;2.83;;;13.00;1.00;;;;;;6306267;22;20392;-88
2024/04/05 07:09:08;;;;;;;5.93;2.40;;;13.00;1.00;;;;;;6306056;22;20377;-86
2024/04/05 07:11:37;;;;;;;8.97;2.87;;;13.10;1.00;;;;;;6305245;22;20384;-86
2024/04/05 07:14:03;;;;;;;7.93;2.43;;;13.20;1.00;;;;;;6298728;22;20443;-86
2024/04/05 07:16:31;;;;;;;5.43;2.63;;;13.30;1.00;;;;;;6290571;22;20404;-86
2024/04/05 07:18:57;;;;;;;9.97;2.73;;;13.30;1.00;;;;;;6285518;22;20379;-85
2024/04/05 07:21:24;;;;;;;8.87;2.33;;;13.40;1.00;;;;;;6285218;22;20436;-85
2024/04/05 07:23:51;;;;;;;4.30;2.30;;;13.40;1.00;;;;;;6284917;22;20472;-85
2024/04/05 07:26:18;;;;;;;8.80;2.60;;;13.50;1.00;;;;;;6284913;22;20930;-85
2024/04/05 07:28:44;;;;;;;8.67;2.97;;;13.50;1.00;;;;;;6286169;22;20945;-87
2024/04/05 07:31:11;;;;;;;7.47;2.90;;;13.60;1.00;;;;;;6288983;22;20400;-85
2024/04/05 07:33:39;;;;;;;10.20;2.67;;;13.70;1.00;;;;;;6294151;22;20408;-85
2024/04/05 07:36:06;;;;;;;8.77;3.37;;;13.70;1.00;;;;;;6283758;22;20411;-85
2024/04/05 07:38:32;;;;;;;5.30;2.60;;;13.70;1.00;;;;;;6285284;22;20489;-85
2024/04/05 07:41:04;;;;;;;5.83;2.60;;;13.70;1.00;;;;;;6285791;22;20945;-86
2024/04/05 07:43:30;;;;;;;11.60;3.43;;;13.90;1.00;;;;;;6285568;22;20169;-85
2024/04/05 07:45:57;;;;;;;7.00;2.90;;;13.90;1.00;;;;;;6285849;22;20411;-85
2024/04/05 07:48:23;;;;;;;4.63;2.60;;;14.10;1.00;;;;;;6285886;22;20924;-85
2024/04/05 07:50:51;;;;;;;9.57;3.47;;;14.20;1.00;;;;;;6286923;22;20957;-87
2024/04/05 07:53:17;;;;;;;12.17;4.13;;;14.30;1.00;;;;;;6285510;22;20906;-86
2024/04/05 07:55:44;;;;;;;7.40;2.93;;;14.30;1.00;;;;;;6288458;22;20397;-86
2024/04/05 07:58:10;;;;;;;8.13;2.93;;;14.30;1.00;;;;;;6288611;22;20415;-87
2024/04/05 08:00:37;;;;;;;10.80;3.57;;;14.20;1.00;;;;;;6290062;22;20408;-86
2024/04/05 08:03:03;;;;;;;9.40;2.73;;;14.20;1.00;;;;;;6285489;22;20408;-87
2024/04/05 08:05:30;;;;;;;8.77;3.57;;;14.20;1.00;;;;;;6286850;22;20407;-85
2024/04/05 08:07:58;;;;;;;7.80;2.70;;;14.30;1.00;;;;;;6288409;22;20424;-86
2024/04/05 08:10:24;;;;;;;7.67;3.40;;;14.50;1.00;;;;;;6289525;22;20790;-85
2024/04/05 08:12:51;;;;;;;8.93;2.90;;;14.50;1.00;;;;;;6287625;22;20894;-87
2024/04/05 08:15:18;;;;;;;9.20;2.77;;;14.70;1.00;;;;;;6286611;22;20424;-86
2024/04/05 08:17:44;;;;;;;9.93;3.20;;;14.80;1.00;;;;;;6284711;22;20424;-86
2024/04/05 08:20:10;;;;;;;11.63;2.73;;;14.80;1.00;;;;;;6283458;22;20910;-86
2024/04/05 08:22:36;;;;;;;7.00;2.30;;;14.90;1.00;;;;;;6291548;22;20447;-85
2024/04/05 08:25:07;;;;;;;14.07;4.00;;;15.00;1.00;;;;;;6282289;22;20902;-86
2024/04/05 08:27:34;;;;;;;8.03;3.20;;;15.00;1.00;;;;;;6284075;22;20229;-86
2024/04/05 08:30:01;;;;;;;7.40;3.23;;;15.00;1.00;;;;;;6286034;22;20427;-85
2024/04/05 08:32:28;;;;;;;7.70;3.80;;;15.10;1.00;;;;;;6286011;22;20407;-86
2024/04/05 08:34:55;;;;;;;8.50;3.40;;;15.00;1.00;;;;;;6285816;22;20457;-86
2024/04/05 08:37:21;;;;;;;11.90;3.47;;;15.10;1.00;;;;;;6282647;22;20424;-86
2024/04/05 08:39:48;;;;;;;6.53;2.73;;;15.10;1.00;;;;;;6284686;22;20408;-86
2024/04/05 08:42:17;;;;;;;5.47;3.10;;;15.10;1.00;;;;;;6285243;22;20945;-86
2024/04/05 08:44:45;;;;;;;9.70;2.93;;;15.10;1.00;;;;;;6284683;22;20409;-86
2024/04/05 08:47:11;;;;;;;8.83;2.90;;;15.00;1.00;;;;;;6296041;22;20404;-87
2024/04/05 08:49:38;;;;;;;8.20;2.87;;;15.00;1.00;;;;;;6305236;22;20403;-84
2024/04/05 08:52:06;;;;;;;4.87;2.80;;;15.00;1.00;;;;;;6304930;22;20411;-84
2024/04/05 08:54:33;;;;;;;8.03;3.53;;;15.10;1.00;;;;;;6304717;22;20416;-84
2024/04/05 08:57:01;;;;;;;10.77;2.90;;;15.10;1.00;;;;;;6291500;22;20440;-85
2024/04/05 08:59:28;;;;;;;10.97;3.20;;;15.20;1.00;;;;;;6287031;22;20389;-85
2024/04/05 09:01:59;;;;;;;9.80;2.77;;;15.40;1.00;;;;;;6292291;22;20489;-87
2024/04/05 09:04:25;;;;;;;7.27;2.30;;;15.60;1.00;;;;;;6287961;22;20379;-86
2024/04/05 09:06:52;;;;;;;8.40;3.70;;;15.60;1.00;;;;;;6285941;22;20936;-86
2024/04/05 09:09:25;;;;;;;11.47;3.50;;;15.70;1.00;;;;;;6284437;22;20404;-86
2024/04/05 09:11:59;;;;;;;5.13;2.50;;;15.60;1.00;;;;;;6288800;22;20427;-86
2024/04/05 09:14:25;;;;;;;7.83;3.80;;;15.60;1.00;;;;;;6288846;22;20380;-86
2024/04/05 09:16:53;;;;;;;8.47;3.53;;;15.60;1.00;;;;;;6283955;22;20421;-86
2024/04/05 09:19:20;;;;;;;4.90;3.43;;;15.70;1.00;;;;;;6297933;22;20177;-86
2024/04/05 09:21:49;;;;;;;7.10;3.03;;;15.70;1.00;;;;;;6287224;22;20433;-86
2024/04/05 09:24:15;;;;;;;13.03;3.70;;;15.80;1.00;;;;;;6294221;22;20396;-86
2024/04/05 09:26:43;;;;;;;6.80;2.83;;;15.90;1.00;;;;;;6288040;22;20431;-86
2024/04/05 09:29:12;;;;;;;7.43;2.80;;;15.90;1.00;;;;;;6291524;22;20412;-86
2024/04/05 09:31:39;;;;;;;5.30;2.37;;;16.00;1.00;;;;;;6291751;22;20400;-85
2024/04/05 09:34:08;;;;;;;8.03;2.50;;;15.90;1.00;;;;;;6289155;22;20400;-86
2024/04/05 09:36:36;;;;;;;10.40;2.80;;;15.90;1.00;;;;;;6288870;22;20905;-86
2024/04/05 09:39:03;;;;;;;8.53;3.27;;;16.10;1.00;;;;;;6287009;22;20415;-86
2024/04/05 09:41:32;;;;;;;8.90;3.60;;;16.20;1.00;;;;;;6284974;22;20435;-86
2024/04/05 09:43:59;;;;;;;7.17;2.80;;;16.40;1.00;;;;;;6285947;22;20404;-86
2024/04/05 09:46:27;;;;;;;5.27;2.13;;;16.10;1.00;;;;;;6284462;22;20482;-86
2024/04/05 09:48:55;;;;;;;8.17;3.07;;;16.00;1.00;;;;;;6286430;22;20404;-86
2024/04/05 09:51:26;;;;;;;7.97;2.73;;;15.90;1.00;;;;;;6285125;22;20483;-85
2024/04/05 09:53:53;;;;;;;4.57;2.47;;;15.90;1.00;;;;;;6285413;22;20365;-86
2024/04/05 09:56:24;;;;;;;7.90;2.70;;;15.90;1.00;;;;;;6285666;22;20428;-85
2024/04/05 09:58:53;;;;;;;4.40;2.63;;;15.80;1.00;;;;;;6285789;22;20423;-86
2024/04/05 10:01:21;;;;;;;8.17;2.63;;;15.90;1.00;;;;;;6284969;22;20457;-85
2024/04/05 10:03:47;;;;;;;7.30;3.10;;;16.00;1.00;;;;;;6286253;22;20420;-86
2024/04/05 10:06:17;;;;;;;6.27;2.63;;;15.90;1.00;;;;;;6286596;22;20480;-86
2024/04/05 10:08:45;;;;;;;4.40;2.87;;;15.90;1.00;;;;;;6287023;22;20961;-86
2024/04/05 10:11:13;;;;;;;7.10;3.23;;;16.00;1.00;;;;;;6294830;22;20428;-86
2024/04/05 10:13:40;;;;;;;5.53;2.57;;;16.20;1.00;;;;;;6301737;22;20388;-85
2024/04/05 10:16:08;;;;;;;10.37;3.40;;;16.40;1.00;;;;;;6300740;22;20411;-86
2024/04/05 10:18:37;;;;;;;10.60;4.50;;;16.40;1.00;;;;;;6287296;22;20486;-86
2024/04/05 10:21:07;;;;;;;8.43;4.13;;;16.50;1.00;;;;;;6283862;22;20432;-86
2024/04/05 10:23:34;;;;;;;6.23;3.90;;;16.80;1.00;;;;;;6285781;22;20415;-85
2024/04/05 10:26:02;;;;;;;5.07;3.40;;;16.80;1.00;;;;;;6289748;22;20375;-86
2024/04/05 10:28:29;;;;;;;9.43;6.20;;;16.70;1.00;;;;;;6289082;22;20478;-85
2024/04/05 10:30:56;;;;;;;6.57;3.07;;;16.70;1.00;;;;;;6285922;22;20404;-85
2024/04/05 10:33:23;;;;;;;14.30;4.07;;;16.80;1.00;;;;;;6289835;22;20706;-86
2024/04/05 10:35:50;;;;;;;7.50;3.40;;;16.90;1.00;;;;;;6292647;22;20400;-85
2024/04/05 10:38:17;;;;;;;4.90;3.37;;;17.10;1.00;;;;;;6291728;22;20409;-85
2024/04/05 10:40:44;;;;;;;4.13;3.00;;;17.20;1.00;;;;;;6290018;22;20427;-87
2024/04/05 10:43:12;;;;;;;6.63;3.33;;;17.00;1.00;;;;;;6288856;22;20496;-84
2024/04/05 10:45:40;;;;;;;7.63;2.67;;;17.10;1.00;;;;;;6287703;22;20458;-85
2024/04/05 10:48:06;;;;;;;7.67;2.70;;;17.00;1.00;;;;;;6284417;22;20432;-85
2024/04/05 10:50:37;;;;;;;3.27;2.20;;;17.10;1.00;;;;;;6284768;22;20489;-86
2024/04/05 10:53:04;;;;;;;8.53;2.90;;;17.10;1.00;;;;;;6282926;22;20405;-86
2024/04/05 10:55:32;;;;;;;10.50;3.20;;;17.00;1.00;;;;;;6283033;22;20404;-86
2024/04/05 10:58:01;;;;;;;8.73;2.40;;;17.00;1.00;;;;;;6283761;22;20440;-86
2024/04/05 11:00:32;;;;;;;7.80;3.27;;;17.10;1.00;;;;;;6284563;22;20407;-86
2024/04/05 11:02:58;;;;;;;9.10;2.63;;;17.30;1.00;;;;;;6287432;22;20429;-86
2024/04/05 11:05:25;;;;;;;5.70;2.50;;;17.70;1.00;;;;;;6288984;22;21020;-86
2024/04/05 11:07:58;;;;;;;8.20;3.00;;;17.80;1.00;;;;;;6287578;22;20197;-86
2024/04/05 11:10:29;;;;;;;5.87;3.30;;;17.90;1.00;;;;;;6293869;22;20400;-86
2024/04/05 11:12:55;;;;;;;7.67;3.00;;;17.90;1.00;;;;;;6289221;22;20382;-86
2024/04/05 11:15:22;;;;;;;4.43;2.20;;;17.80;1.00;;;;;;6288397;22;20427;-85
2024/04/05 11:17:59;;;;;;;6.43;2.80;;;17.70;1.00;;;;;;6286405;22;20508;-87
2024/04/05 11:20:29;;;;;;;5.17;2.70;;;17.60;1.00;;;;;;6285780;22;20388;-86
2024/04/05 11:22:55;;;;;;;7.10;3.63;;;17.70;1.00;;;;;;6285920;22;20412;-86
2024/04/05 11:25:22;;;;;;;6.40;2.93;;;17.80;1.00;;;;;;6288756;22;20424;-86
2024/04/05 11:27:48;;;;;;;5.40;2.63;;;17.80;1.00;;;;;;6293635;22;20468;-86
2024/04/05 11:30:15;;;;;;;7.20;2.53;;;18.00;1.00;;;;;;6302557;22;20373;-86
2024/04/05 11:32:42;;;;;;;7.13;3.10;;;18.20;1.00;;;;;;6305528;22;20367;-85
2024/04/05 11:35:12;;;;;;;7.77;3.20;;;18.20;1.00;;;;;;6305688;22;20456;-84
2024/04/05 11:37:38;;;;;;;5.87;3.20;;;18.30;1.00;;;;;;6293964;22;20497;-84
2024/04/05 11:40:09;;;;;;;10.57;3.73;;;18.30;1.00;;;;;;6288688;22;20404;-85
2024/04/05 11:42:35;;;;;;;7.27;3.87;;;18.30;1.00;;;;;;6290681;22;20945;-85
2024/04/05 11:45:02;;;;;;;7.80;2.77;;;18.20;1.00;;;;;;6289120;22;20412;-85
2024/04/05 11:47:28;;;;;;;6.80;2.97;;;17.90;1.00;;;;;;6293336;22;20440;-86
2024/04/05 11:49:55;;;;;;;4.13;2.47;;;17.70;1.00;;;;;;6287439;22;20406;-87
2024/04/05 11:52:23;;;;;;;10.30;6.20;;;17.60;1.00;;;;;;6293951;22;20405;-86
2024/04/05 11:54:49;;;;;;;4.67;2.87;;;17.80;1.00;;;;;;6285812;22;20462;-86
2024/04/05 11:57:16;;;;;;;5.27;2.57;;;18.00;1.00;;;;;;6289744;22;20486;-86
2024/04/05 11:59:44;;;;;;;4.73;2.70;;;18.10;1.00;;;;;;6290891;22;20400;-86
2024/04/05 12:02:11;;;;;;;5.60;2.63;;;18.20;1.00;;;;;;6288427;22;20480;-86
2024/04/05 12:04:38;;;;;;;7.13;2.97;;;18.20;1.00;;;;;;6288034;22;20495;-85
2024/04/05 12:07:05;;;;;;;6.03;3.57;;;18.30;1.00;;;;;;6286368;22;20424;-87
2024/04/05 12:09:33;;;;;;;4.77;2.40;;;18.40;1.00;;;;;;6287574;22;20410;-86
2024/04/05 12:11:59;;;;;;;6.07;2.63;;;18.50;1.00;;;;;;6290126;22;20467;-85
2024/04/05 12:14:26;;;;;;;7.10;3.03;;;18.40;1.00;;;;;;6287103;22;20408;-86
2024/04/05 12:16:52;;;;;;;3.53;2.50;;;18.40;1.00;;;;;;6285718;22;20195;-86
2024/04/05 12:19:19;;;;;;;4.83;2.70;;;18.50;1.00;;;;;;6287191;22;20405;-86
2024/04/05 12:21:45;;;;;;;5.60;2.93;;;18.60;1.00;;;;;;6284875;22;20587;-86
2024/04/05 12:24:12;;;;;;;3.00;2.67;;;18.60;1.00;;;;;;6301332;22;20390;-85
2024/04/05 12:26:39;;;;;;;5.10;2.33;;;18.80;1.00;;;;;;6305323;22;20192;-85
2024/04/05 12:29:06;;;;;;;5.70;2.80;;;19.00;1.00;;;;;;6305160;22;20361;-85
2024/04/05 12:31:32;;;;;;;3.73;2.63;;;19.00;1.00;;;;;;6300777;22;20409;-86
2024/04/05 12:33:59;;;;;;;3.97;2.40;;;19.00;1.00;;;;;;6283066;22;20717;-86
2024/04/05 12:36:25;;;;;;;7.53;3.20;;;19.10;1.00;;;;;;6281174;22;20211;-87
2024/04/05 12:38:56;;;;;;;5.27;2.50;;;19.20;1.00;;;;;;6282631;22;20406;-87
2024/04/05 12:41:23;;;;;;;4.10;2.20;;;19.30;1.00;;;;;;6281112;22;20781;-85
2024/04/05 12:43:52;;;;;;;7.30;2.80;;;19.00;1.00;;;;;;6291732;22;20395;-85
2024/04/05 12:46:18;;;;;;;3.00;2.60;;;19.10;1.00;;;;;;6287292;22;20418;-85
2024/04/05 12:48:46;;;;;;;3.20;2.50;;;19.00;1.00;;;;;;6283484;22;20425;-85
2024/04/05 12:51:12;;;;;;;4.17;2.10;;;19.00;1.00;;;;;;6284688;22;20383;-85
2024/04/05 12:53:40;;;;;;;5.77;2.43;;;19.30;1.00;;;;;;6286312;22;20733;-87
2024/04/05 12:56:06;;;;;;;5.23;2.77;;;19.20;1.00;;;;;;6286304;22;20460;-85
2024/04/05 12:58:35;;;;;;;5.70;2.33;;;19.00;1.00;;;;;;6286592;22;20469;-86
2024/04/05 13:01:03;;;;;;;5.83;1.80;;;18.80;1.00;;;;;;6284817;22;20409;-86
2024/04/05 13:03:32;;;;;;;3.13;2.37;;;18.80;1.00;;;;;;6283281;22;20434;-85
2024/04/05 13:06:05;;;;;;;6.80;3.97;;;18.70;1.00;;;;;;6285457;22;20878;-86
2024/04/05 13:08:34;;;;;;;4.50;3.10;;;18.50;1.00;;;;;;6290279;22;20441;-85
2024/04/05 13:11:00;;;;;;;3.50;2.80;;;18.40;1.00;;;;;;6289677;22;20409;-86
2024/04/05 13:13:27;;;;;;;5.07;2.77;;;18.40;1.00;;;;;;6285611;22;20377;-85
2024/04/05 13:15:56;;;;;;;8.30;3.90;;;18.40;1.00;;;;;;6287471;22;20408;-85
2024/04/05 13:18:24;;;;;;;6.87;3.80;;;18.40;1.00;;;;;;6289921;22;20421;-86
2024/04/05 13:20:51;;;;;;;4.60;4.00;;;18.30;1.00;;;;;;6288169;22;20443;-86
2024/04/05 13:23:18;;;;;;;6.10;3.80;;;18.40;1.00;;;;;;6286370;22;20757;-86
2024/04/05 13:25:44;;;;;;;7.83;3.20;;;18.30;1.00;;;;;;6287582;22;20413;-85
2024/04/05 13:28:10;;;;;;;6.53;2.73;;;18.40;1.00;;;;;;6288935;22;20428;-87
2024/04/05 13:30:36;;;;;;;3.37;3.03;;;18.40;1.00;;;;;;6288391;22;20190;-87
2024/04/05 13:33:04;;;;;;;4.40;2.57;;;18.30;1.00;;;;;;6296823;22;20410;-86
2024/04/05 13:35:31;;;;;;;5.60;2.60;;;18.10;1.00;;;;;;6288989;22;20428;-86
2024/04/05 13:37:59;;;;;;;5.27;2.90;;;18.00;1.00;;;;;;6287955;22;20428;-86
2024/04/05 13:40:27;;;;;;;4.30;3.50;;;18.00;1.00;;;;;;6286609;22;20922;-86
2024/04/05 13:42:54;;;;;;;8.30;4.37;;;18.00;1.00;;;;;;6286563;22;20517;-86
2024/04/05 13:45:20;;;;;;;7.87;3.20;;;18.10;1.00;;;;;;6293315;22;20745;-86
2024/04/05 13:47:47;;;;;;;4.20;2.80;;;18.00;1.00;;;;;;6284766;22;20499;-86
2024/04/05 13:50:13;;;;;;;5.50;2.83;;;18.10;1.00;;;;;;6284874;22;20178;-86
2024/04/05 13:52:41;;;;;;;4.37;3.67;;;18.00;1.00;;;;;;6286540;22;20396;-86
2024/04/05 13:55:07;;;;;;;5.50;3.10;;;18.10;1.00;;;;;;6288573;22;20510;-86
2024/04/05 14:00:18;;;;;;;3.63;3.33;;;18.10;1.00;;;;;;6302936;22;20480;-90
2024/04/05 14:02:51;;;;;;;3.53;3.23;;;18.10;1.00;;;;;;6301089;22;20436;-89
2024/04/05 14:05:23;;;;;;;5.90;2.70;;;18.10;1.00;;;;;;6304153;22;20352;-88
2024/04/05 14:07:53;;;;;;;6.07;3.10;;;18.10;1.00;;;;;;6303491;22;20444;-90
2024/04/05 14:10:20;;;;;;;4.40;2.90;;;18.10;1.00;;;;;;6305019;22;20379;-88
2024/04/05 14:12:46;;;;;;;4.37;2.40;;;18.10;1.00;;;;;;6306752;22;20397;-87
2024/04/05 14:15:21;;;;;;;12.43;3.93;;;18.10;1.00;;;;;;6306632;22;20397;-89
2024/04/05 14:17:50;;;;;;;6.40;3.37;;;18.10;1.00;;;;;;6306329;22;20508;-89
2024/04/05 14:20:28;;;;;;;6.93;3.57;;;18.10;1.00;;;;;;6306546;22;20416;-89
2024/04/05 14:22:59;;;;;;;6.90;3.30;;;18.10;1.00;;;;;;6305936;22;20428;-90
2024/04/05 14:25:30;;;;;;;5.90;2.80;;;18.10;1.00;;;;;;6304429;22;20725;-90
2024/04/05 14:28:07;;;;;;;4.67;2.70;;;18.20;1.00;;;;;;6302649;22;20457;-90
2024/04/05 14:30:48;;;;;;;7.03;2.53;;;18.20;1.00;;;;;;6301997;22;20353;-90
2024/04/05 14:33:16;;;;;;;3.53;3.00;;;18.20;1.00;;;;;;6302986;22;20693;-90
2024/04/05 14:35:48;;;;;;;9.90;3.10;;;18.40;1.00;;;;;;6300416;22;20514;-90
2024/04/05 14:38:25;;;;;;;7.83;2.40;;;18.40;1.00;;;;;;6300692;22;20499;-90
2024/04/05 14:40:53;;;;;;;3.43;2.73;;;18.40;1.00;;;;;;6299263;22;20414;-89
2024/04/05 14:43:22;;;;;;;4.20;2.63;;;18.50;1.00;;;;;;6295644;22;20505;-90